createdAt,value
2023-05-06T00:00:23.313Z,524.7
2023-05-06T00:01:25.156Z,524.9
2023-05-06T00:02:27.358Z,524.7
2023-05-06T00:03:30.106Z,525
2023-05-06T00:04:32.404Z,524.7
2023-05-06T00:05:34.320Z,525.2
2023-05-06T00:06:36.227Z,525.2
2023-05-06T00:07:38.130Z,525.4
2023-05-06T00:08:39.946Z,525.5
2023-05-06T00:09:41.803Z,525.5
2023-05-06T00:10:43.658Z,525.5
2023-05-06T00:11:45.516Z,525.7
2023-05-06T00:12:47.466Z,525.4
2023-05-06T00:13:49.306Z,525.6
2023-05-06T00:14:51.162Z,525.7
2023-05-06T00:15:55.652Z,525.7
2023-05-06T00:16:57.326Z,525.8
2023-05-06T00:17:59.369Z,525.6
2023-05-06T00:19:01.406Z,525.4
2023-05-06T00:20:03.474Z,525.5
2023-05-06T00:21:05.326Z,525.6
2023-05-06T00:22:07.179Z,525.3
2023-05-06T00:23:09.231Z,525.9
2023-05-06T00:24:11.183Z,525.8
2023-05-06T00:25:15.683Z,526.1
2023-05-06T00:26:17.537Z,526.1
2023-05-06T00:27:19.392Z,525.9
2023-05-06T00:28:21.382Z,525.7
2023-05-06T00:29:23.209Z,525.7
2023-05-06T00:30:25.075Z,525.8
2023-05-06T00:31:26.996Z,525.5
2023-05-06T00:32:29.062Z,525.6
2023-05-06T00:33:30.900Z,526
2023-05-06T00:34:32.894Z,525.4
2023-05-06T00:35:34.703Z,525.4
2023-05-06T00:36:36.585Z,525.6
2023-05-06T00:37:38.408Z,525.4
2023-05-06T00:38:40.354Z,525.5
2023-05-06T00:39:42.516Z,525.7
2023-05-06T00:40:44.269Z,525.6
2023-05-06T00:41:46.123Z,525.8
2023-05-06T00:42:47.948Z,525.6
2023-05-06T00:43:49.709Z,525.7
2023-05-06T00:44:51.557Z,525.8
2023-05-06T00:45:53.688Z,525.6
2023-05-06T00:46:55.671Z,525.9
2023-05-06T00:47:57.885Z,526
2023-05-06T00:48:59.779Z,525.8
2023-05-06T00:50:01.597Z,525.7
2023-05-06T00:51:03.578Z,526
2023-05-06T00:52:05.538Z,526.2
2023-05-06T00:53:07.391Z,526.3
2023-05-06T00:54:09.264Z,526
2023-05-06T00:55:11.753Z,526
2023-05-06T00:56:13.639Z,525.8
2023-05-06T00:57:15.500Z,526.1
2023-05-06T00:58:17.343Z,526.3
2023-05-06T00:59:19.097Z,526.5
2023-05-06T01:00:21.042Z,526.7
2023-05-06T01:01:23.228Z,526.7
2023-05-06T01:02:48.559Z,526.6
2023-05-06T01:03:50.977Z,526.2
2023-05-06T01:04:53.277Z,526.1
2023-05-06T01:05:54.945Z,526.5
2023-05-06T01:06:56.821Z,526.7
2023-05-06T01:07:58.756Z,526.6
2023-05-06T01:09:00.537Z,526.7
2023-05-06T01:10:02.586Z,526.8
2023-05-06T01:11:04.529Z,527
2023-05-06T01:12:06.368Z,527
2023-05-06T01:13:08.390Z,526.9
2023-05-06T01:14:10.335Z,526.8
2023-05-06T01:15:12.659Z,527.2
2023-05-06T01:16:17.071Z,527
2023-05-06T01:17:19.326Z,527.1
2023-05-06T01:18:21.280Z,527
2023-05-06T01:19:23.125Z,526.7
2023-05-06T01:20:25.091Z,526.6
2023-05-06T01:21:26.940Z,526.8
2023-05-06T01:22:28.887Z,526.9
2023-05-06T01:23:30.844Z,527.2
2023-05-06T01:24:32.791Z,527.1
2023-05-06T01:25:34.759Z,526.7
2023-05-06T01:26:36.593Z,526.7
2023-05-06T01:27:38.433Z,526.6
2023-05-06T01:28:40.388Z,526.4
2023-05-06T01:29:42.239Z,526.6
2023-05-06T01:30:47.060Z,526.5
2023-05-06T01:31:48.914Z,526.3
2023-05-06T01:32:50.896Z,526.1
2023-05-06T01:33:52.718Z,527.1
2023-05-06T01:34:54.482Z,527.1
2023-05-06T01:35:56.619Z,526.9
2023-05-06T01:36:58.500Z,527
2023-05-06T01:38:00.424Z,526.8
2023-05-06T01:39:02.407Z,527
2023-05-06T01:40:04.227Z,527.3
2023-05-06T01:41:06.380Z,527.4
2023-05-06T01:42:08.307Z,527.8
2023-05-06T01:43:10.179Z,527.9
2023-05-06T01:44:12.051Z,527.6
2023-05-06T01:45:13.982Z,527.6
2023-05-06T01:46:15.952Z,527
2023-05-06T01:47:17.875Z,527.1
2023-05-06T01:48:20.042Z,526.9
2023-05-06T01:49:21.910Z,527.2
2023-05-06T01:50:23.848Z,527.1
2023-05-06T01:51:25.698Z,527.3
2023-05-06T01:52:27.577Z,526.9
2023-05-06T01:53:29.316Z,526.8
2023-05-06T01:54:31.185Z,527.2
2023-05-06T01:55:33.098Z,526.8
2023-05-06T01:56:34.952Z,526.9
2023-05-06T01:57:36.893Z,527.2
2023-05-06T01:58:38.751Z,527
2023-05-06T01:59:40.607Z,526.9
2023-05-06T02:00:42.538Z,526.4
2023-05-06T02:01:44.624Z,526.6
2023-05-06T02:02:46.796Z,526.8
2023-05-06T02:03:49.208Z,526.5
2023-05-06T02:04:54.056Z,526.7
2023-05-06T02:05:56.742Z,526.7
2023-05-06T02:06:58.568Z,526.5
2023-05-06T02:08:00.422Z,527
2023-05-06T02:09:02.279Z,526.8
2023-05-06T02:10:04.303Z,526.9
2023-05-06T02:11:06.184Z,527.2
2023-05-06T02:12:08.130Z,527
2023-05-06T02:13:10.288Z,527
2023-05-06T02:14:12.143Z,526.9
2023-05-06T02:15:16.440Z,526.9
2023-05-06T02:16:18.450Z,527.1
2023-05-06T02:17:20.364Z,527.2
2023-05-06T02:18:22.295Z,527.2
2023-05-06T02:19:24.152Z,527
2023-05-06T02:20:25.818Z,527.1
2023-05-06T02:21:27.536Z,526.8
2023-05-06T02:22:29.393Z,526.8
2023-05-06T02:23:31.336Z,527.1
2023-05-06T02:24:33.191Z,527
2023-05-06T02:25:35.149Z,526.8
2023-05-06T02:26:36.993Z,526.9
2023-05-06T02:27:38.951Z,527
2023-05-06T02:28:40.906Z,527.3
2023-05-06T02:29:42.785Z,527.1
2023-05-06T02:30:44.496Z,527.3
2023-05-06T02:31:46.569Z,527.4
2023-05-06T02:32:48.559Z,527.1
2023-05-06T02:33:50.561Z,527.4
2023-05-06T02:34:52.414Z,527.6
2023-05-06T02:35:54.264Z,527.7
2023-05-06T02:36:56.104Z,527.6
2023-05-06T02:37:57.948Z,528
2023-05-06T02:38:59.906Z,528
2023-05-06T02:40:01.702Z,527.5
2023-05-06T02:41:03.662Z,527.3
2023-05-06T02:42:05.557Z,526.8
2023-05-06T02:43:07.448Z,526.9
2023-05-06T02:44:09.372Z,526.9
2023-05-06T02:45:12.203Z,527.2
2023-05-06T02:46:14.299Z,527.2
2023-05-06T02:47:16.147Z,527.1
2023-05-06T02:48:17.994Z,527.2
2023-05-06T02:49:19.847Z,527.1
2023-05-06T02:50:21.586Z,527.1
2023-05-06T02:51:23.335Z,526.8
2023-05-06T02:52:25.290Z,526.6
2023-05-06T02:53:27.149Z,526.4
2023-05-06T02:54:29.044Z,526.7
2023-05-06T02:55:30.984Z,526.5
2023-05-06T02:56:32.886Z,526.6
2023-05-06T02:57:34.749Z,526.7
2023-05-06T02:58:36.695Z,526
2023-05-06T02:59:38.755Z,525.9
2023-05-06T03:00:40.594Z,525.6
2023-05-06T03:01:42.450Z,525.8
2023-05-06T03:02:44.339Z,525.6
2023-05-06T03:03:46.354Z,525.8
2023-05-06T03:04:48.313Z,526
2023-05-06T03:05:50.265Z,525.9
2023-05-06T03:06:52.121Z,525.3
2023-05-06T03:07:54.173Z,525.9
2023-05-06T03:08:56.013Z,526
2023-05-06T03:09:57.982Z,526.1
2023-05-06T03:10:59.923Z,525.8
2023-05-06T03:12:01.863Z,526
2023-05-06T03:13:04.167Z,526.2
2023-05-06T03:14:06.327Z,526
2023-05-06T03:15:09.117Z,526
2023-05-06T03:16:11.333Z,526
2023-05-06T03:17:13.172Z,526.2
2023-05-06T03:18:15.015Z,525.6
2023-05-06T03:19:16.968Z,525.5
2023-05-06T03:20:18.824Z,525.4
2023-05-06T03:21:20.878Z,525
2023-05-06T03:22:22.645Z,525.2
2023-05-06T03:23:24.392Z,525.4
2023-05-06T03:24:26.323Z,524.9
2023-05-06T03:25:28.081Z,525
2023-05-06T03:26:29.921Z,524.8
2023-05-06T03:27:31.866Z,525
2023-05-06T03:28:33.832Z,525.2
2023-05-06T03:29:35.946Z,524.8
2023-05-06T03:30:37.765Z,524.7
2023-05-06T03:31:39.908Z,524.4
2023-05-06T03:32:41.961Z,524.5
2023-05-06T03:33:43.798Z,524.7
2023-05-06T03:34:45.644Z,524.7
2023-05-06T03:35:47.401Z,524.4
2023-05-06T03:36:49.248Z,524.5
2023-05-06T03:37:51.191Z,524.8
2023-05-06T03:38:52.941Z,524.5
2023-05-06T03:39:54.789Z,524.3
2023-05-06T03:40:56.631Z,524.6
2023-05-06T03:41:58.493Z,524.2
2023-05-06T03:43:00.522Z,524.2
2023-05-06T03:44:02.401Z,524.5
2023-05-06T03:45:04.462Z,524.2
2023-05-06T03:46:06.671Z,523.9
2023-05-06T03:47:08.557Z,523.7
2023-05-06T03:48:10.672Z,523.8
2023-05-06T03:49:12.609Z,523.7
2023-05-06T03:50:14.523Z,523.5
2023-05-06T03:51:16.374Z,523.6
2023-05-06T03:52:18.224Z,523.6
2023-05-06T03:53:20.114Z,523.2
2023-05-06T03:54:21.915Z,524
2023-05-06T03:55:23.683Z,523.4
2023-05-06T03:56:25.629Z,523.5
2023-05-06T03:57:27.470Z,523.1
2023-05-06T03:58:29.496Z,523.1
2023-05-06T03:59:31.380Z,523.3
2023-05-06T04:00:33.230Z,523.1
2023-05-06T04:01:35.291Z,523.1
2023-05-06T04:02:37.829Z,523.5
2023-05-06T04:03:40.150Z,523.4
2023-05-06T04:04:41.967Z,523.5
2023-05-06T04:05:43.786Z,523.4
2023-05-06T04:06:45.602Z,523
2023-05-06T04:07:47.402Z,523
2023-05-06T04:08:49.248Z,522.7
2023-05-06T04:09:51.101Z,523
2023-05-06T04:10:52.984Z,523
2023-05-06T04:11:54.899Z,523.1
2023-05-06T04:12:57.217Z,523.1
2023-05-06T04:13:59.323Z,522.9
2023-05-06T04:15:01.273Z,522.9
2023-05-06T04:16:03.635Z,522.9
2023-05-06T04:17:05.594Z,522.9
2023-05-06T04:18:07.665Z,522.8
2023-05-06T04:19:09.609Z,522.9
2023-05-06T04:20:11.724Z,522.4
2023-05-06T04:21:13.711Z,522.4
2023-05-06T04:22:15.449Z,522.2
2023-05-06T04:23:17.302Z,522.5
2023-05-06T04:24:19.155Z,522.5
2023-05-06T04:25:21.139Z,522
2023-05-06T04:26:23.057Z,522.4
2023-05-06T04:27:24.906Z,522.2
2023-05-06T04:28:26.879Z,522.1
2023-05-06T04:29:28.880Z,521.9
2023-05-06T04:30:30.766Z,521.8
2023-05-06T04:31:33.079Z,521.9
2023-05-06T04:32:35.296Z,521.8
2023-05-06T04:33:37.070Z,521.7
2023-05-06T04:34:38.882Z,521.5
2023-05-06T04:35:40.731Z,521.7
2023-05-06T04:36:42.590Z,521.7
2023-05-06T04:37:44.357Z,521.5
2023-05-06T04:38:46.087Z,521.6
2023-05-06T04:39:48.038Z,521.2
2023-05-06T04:40:49.773Z,521.2
2023-05-06T04:41:51.737Z,521.2
2023-05-06T04:42:53.590Z,520.9
2023-05-06T04:43:55.533Z,520.6
2023-05-06T04:44:57.378Z,520.7
2023-05-06T04:45:59.257Z,521
2023-05-06T04:47:01.394Z,520.5
2023-05-06T04:48:03.464Z,520.8
2023-05-06T04:49:05.279Z,520.8
2023-05-06T04:50:07.142Z,520.2
2023-05-06T04:51:08.999Z,520.5
2023-05-06T04:52:10.946Z,520.3
2023-05-06T04:53:12.805Z,520.1
2023-05-06T04:54:14.732Z,520.1
2023-05-06T04:55:16.487Z,520.1
2023-05-06T04:56:18.348Z,519.8
2023-05-06T04:57:20.207Z,520
2023-05-06T04:58:21.955Z,519.7
2023-05-06T04:59:23.898Z,519.4
2023-05-06T05:00:25.779Z,519.5
2023-05-06T05:01:27.822Z,519.2
2023-05-06T05:02:30.321Z,519.4
2023-05-06T05:03:33.061Z,519.3
2023-05-06T05:04:35.098Z,519.1
2023-05-06T05:05:36.876Z,519.5
2023-05-06T05:06:38.689Z,519.4
2023-05-06T05:07:40.558Z,519.5
2023-05-06T05:08:42.493Z,519
2023-05-06T05:09:44.350Z,518.8
2023-05-06T05:10:46.218Z,519.4
2023-05-06T05:11:48.060Z,519.4
2023-05-06T05:12:50.041Z,519.3
2023-05-06T05:13:51.955Z,519.1
2023-05-06T05:14:53.814Z,518.9
2023-05-06T05:15:55.818Z,518.9
2023-05-06T05:16:57.928Z,518.8
2023-05-06T05:18:00.000Z,518.8
2023-05-06T05:19:09.206Z,518.9
2023-05-06T05:20:11.251Z,519.2
2023-05-06T05:21:13.116Z,518.9
2023-05-06T05:22:14.846Z,518.8
2023-05-06T05:23:16.794Z,518.3
2023-05-06T05:24:18.640Z,518.9
2023-05-06T05:25:20.500Z,518.6
2023-05-06T05:26:22.345Z,518.6
2023-05-06T05:27:24.195Z,518.4
2023-05-06T05:28:26.045Z,518.4
2023-05-06T05:29:27.900Z,518.8
2023-05-06T05:30:29.953Z,518.7
2023-05-06T05:31:32.216Z,518.8
2023-05-06T05:32:34.174Z,518.9
2023-05-06T05:33:36.365Z,518.8
2023-05-06T05:34:38.269Z,519.1
2023-05-06T05:35:40.124Z,519.2
2023-05-06T05:36:42.072Z,518.8
2023-05-06T05:37:44.024Z,518.6
2023-05-06T05:38:45.872Z,518.9
2023-05-06T05:39:47.731Z,518.9
2023-05-06T05:40:49.575Z,519.1
2023-05-06T05:41:51.428Z,519.2
2023-05-06T05:42:53.381Z,519.3
2023-05-06T05:43:55.142Z,519.2
2023-05-06T05:44:57.058Z,519.1
2023-05-06T05:45:58.974Z,519.2
2023-05-06T05:47:00.939Z,518.8
2023-05-06T05:48:02.954Z,519
2023-05-06T05:49:04.992Z,518.7
2023-05-06T05:50:06.967Z,518.8
2023-05-06T05:51:08.793Z,518.8
2023-05-06T05:52:10.735Z,518.8
2023-05-06T05:53:12.490Z,518.7
2023-05-06T05:54:14.343Z,518.6
2023-05-06T05:55:16.201Z,518.7
2023-05-06T05:56:18.142Z,518.2
2023-05-06T05:57:19.984Z,518.2
2023-05-06T05:58:21.837Z,518.2
2023-05-06T05:59:23.722Z,518.2
2023-05-06T06:00:25.453Z,518
2023-05-06T06:01:27.470Z,517.7
2023-05-06T06:02:29.690Z,517.9
2023-05-06T06:03:32.205Z,518.1
2023-05-06T06:04:34.598Z,518.2
2023-05-06T06:05:36.450Z,517.8
2023-05-06T06:06:38.169Z,517.8
2023-05-06T06:07:40.122Z,517.7
2023-05-06T06:08:41.905Z,517.7
2023-05-06T06:09:43.941Z,517.6
2023-05-06T06:10:45.788Z,517.5
2023-05-06T06:11:47.848Z,517.5
2023-05-06T06:12:49.894Z,517.5
2023-05-06T06:13:51.757Z,517.6
2023-05-06T06:14:53.605Z,517.3
2023-05-06T06:15:55.760Z,517.1
2023-05-06T06:16:57.682Z,517.4
2023-05-06T06:17:59.923Z,517.3
2023-05-06T06:19:01.919Z,517.6
2023-05-06T06:20:03.885Z,516.9
2023-05-06T06:21:05.709Z,517.5
2023-05-06T06:22:07.570Z,517.7
2023-05-06T06:23:09.313Z,517.6
2023-05-06T06:24:11.259Z,517.7
2023-05-06T06:25:13.442Z,517.7
2023-05-06T06:26:15.197Z,517.5
2023-05-06T06:27:16.922Z,517.4
2023-05-06T06:28:18.761Z,517.6
2023-05-06T06:29:20.726Z,517.6
2023-05-06T06:30:25.131Z,517.7
2023-05-06T06:31:26.999Z,517.7
2023-05-06T06:32:28.957Z,517.7
2023-05-06T06:33:30.911Z,517.9
2023-05-06T06:34:32.739Z,518
2023-05-06T06:35:34.824Z,518
2023-05-06T06:36:36.752Z,517.8
2023-05-06T06:37:38.586Z,517.5
2023-05-06T06:38:40.547Z,517.6
2023-05-06T06:39:42.500Z,517.7
2023-05-06T06:40:44.462Z,517.7
2023-05-06T06:41:46.304Z,517.5
2023-05-06T06:42:48.154Z,517.4
2023-05-06T06:43:49.916Z,517
2023-05-06T06:44:51.855Z,517
2023-05-06T06:45:53.811Z,516.9
2023-05-06T06:46:55.645Z,516.7
2023-05-06T06:47:57.727Z,517.1
2023-05-06T06:48:59.564Z,516.4
2023-05-06T06:50:01.544Z,516.4
2023-05-06T06:51:03.460Z,516.2
2023-05-06T06:52:05.281Z,516.1
2023-05-06T06:53:07.261Z,516.3
2023-05-06T06:54:09.012Z,516.5
2023-05-06T06:55:12.134Z,516.8
2023-05-06T06:56:14.445Z,516.8
2023-05-06T06:57:16.195Z,516.5
2023-05-06T06:58:18.159Z,516.7
2023-05-06T06:59:19.875Z,516.5
2023-05-06T07:00:21.858Z,516.3
2023-05-06T07:01:24.054Z,516.5
2023-05-06T07:02:26.089Z,516.4
2023-05-06T07:03:27.936Z,516.2
2023-05-06T07:04:30.104Z,516.5
2023-05-06T07:05:32.031Z,516.4
2023-05-06T07:06:33.970Z,516.1
2023-05-06T07:07:36.032Z,516.1
2023-05-06T07:08:37.875Z,516.3
2023-05-06T07:09:40.858Z,516.2
2023-05-06T07:10:42.610Z,515.9
2023-05-06T07:11:44.433Z,515.9
2023-05-06T07:12:46.338Z,515.6
2023-05-06T07:13:48.261Z,515.5
2023-05-06T07:14:50.106Z,515.4
2023-05-06T07:15:51.871Z,515.5
2023-05-06T07:16:53.749Z,516
2023-05-06T07:17:55.776Z,515.7
2023-05-06T07:18:57.601Z,515.8
2023-05-06T07:19:59.472Z,515.8
2023-05-06T07:21:01.133Z,516
2023-05-06T07:22:02.962Z,516
2023-05-06T07:23:04.816Z,515.9
2023-05-06T07:24:06.660Z,516.3
2023-05-06T07:25:09.335Z,516.1
2023-05-06T07:26:11.381Z,515.6
2023-05-06T07:27:13.224Z,515.9
2023-05-06T07:28:15.085Z,515.3
2023-05-06T07:29:16.935Z,515.4
2023-05-06T07:30:23.002Z,515.3
2023-05-06T07:31:25.152Z,515.5
2023-05-06T07:32:27.210Z,515.4
2023-05-06T07:33:29.155Z,515.2
2023-05-06T07:34:31.088Z,515.3
2023-05-06T07:35:33.044Z,515.2
2023-05-06T07:36:34.893Z,515
2023-05-06T07:37:36.845Z,515.4
2023-05-06T07:38:38.904Z,515.5
2023-05-06T07:39:40.666Z,515.6
2023-05-06T07:40:42.511Z,515.9
2023-05-06T07:41:44.318Z,515.7
2023-05-06T07:42:46.099Z,515.9
2023-05-06T07:43:47.954Z,516.3
2023-05-06T07:44:49.792Z,516.4
2023-05-06T07:45:51.775Z,516.4
2023-05-06T07:46:53.948Z,516.1
2023-05-06T07:47:56.300Z,516.1
2023-05-06T07:48:58.146Z,516.2
2023-05-06T07:49:59.969Z,516.3
2023-05-06T07:51:01.843Z,516.3
2023-05-06T07:52:03.766Z,516.3
2023-05-06T07:53:05.838Z,516.4
2023-05-06T07:54:07.789Z,516
2023-05-06T07:55:10.838Z,515.8
2023-05-06T07:56:12.914Z,516
2023-05-06T07:57:14.677Z,515.7
2023-05-06T07:58:16.607Z,516.1
2023-05-06T07:59:18.473Z,516.2
2023-05-06T08:00:20.313Z,516.6
2023-05-06T08:01:22.178Z,516.6
2023-05-06T08:02:24.698Z,516.2
2023-05-06T08:03:27.956Z,516.4
2023-05-06T08:04:30.108Z,516.3
2023-05-06T08:05:32.017Z,516.6
2023-05-06T08:06:34.077Z,516.3
2023-05-06T08:07:35.920Z,517.1
2023-05-06T08:08:37.877Z,516.4
2023-05-06T08:09:39.766Z,516.3
2023-05-06T08:10:41.775Z,517
2023-05-06T08:11:43.735Z,517.1
2023-05-06T08:12:45.688Z,517.2
2023-05-06T08:13:47.635Z,517.1
2023-05-06T08:14:49.482Z,517.1
2023-05-06T08:15:51.192Z,517.1
2023-05-06T08:16:53.291Z,516.9
2023-05-06T08:17:55.362Z,516.9
2023-05-06T08:18:57.193Z,516.7
2023-05-06T08:19:59.056Z,516.6
2023-05-06T08:21:01.022Z,516.9
2023-05-06T08:22:03.069Z,517.2
2023-05-06T08:23:04.903Z,516.8
2023-05-06T08:24:06.963Z,517
2023-05-06T08:25:10.145Z,517.2
2023-05-06T08:26:12.100Z,516.9
2023-05-06T08:27:14.049Z,516.8
2023-05-06T08:28:15.732Z,516.4
2023-05-06T08:29:17.514Z,516.7
2023-05-06T08:30:19.390Z,516.7
2023-05-06T08:31:21.362Z,516.9
2023-05-06T08:32:23.622Z,516.8
2023-05-06T08:33:25.551Z,517.3
2023-05-06T08:34:27.316Z,517.1
2023-05-06T08:35:29.117Z,517.3
2023-05-06T08:36:31.114Z,517.5
2023-05-06T08:37:33.109Z,517
2023-05-06T08:38:34.906Z,517.1
2023-05-06T08:39:36.857Z,517
2023-05-06T08:40:38.615Z,516.9
2023-05-06T08:41:40.457Z,517
2023-05-06T08:42:42.406Z,516.9
2023-05-06T08:43:44.264Z,517.1
2023-05-06T08:44:46.114Z,516.7
2023-05-06T08:45:48.003Z,517
2023-05-06T08:46:49.704Z,516.8
2023-05-06T08:47:51.893Z,516.9
2023-05-06T08:48:56.387Z,516.9
2023-05-06T08:49:57.947Z,516.8
2023-05-06T08:50:59.792Z,516.8
2023-05-06T08:52:01.682Z,516.8
2023-05-06T08:53:03.722Z,517
2023-05-06T08:54:05.535Z,517.1
2023-05-06T08:55:07.607Z,516.8
2023-05-06T08:56:09.630Z,516.8
2023-05-06T08:57:13.222Z,517
2023-05-06T08:58:15.077Z,517.2
2023-05-06T08:59:17.035Z,517.7
2023-05-06T09:00:19.000Z,517.4
2023-05-06T09:01:20.846Z,517.4
2023-05-06T09:02:23.027Z,517.2
2023-05-06T09:03:25.478Z,517.6
2023-05-06T09:04:27.410Z,517.5
2023-05-06T09:05:29.354Z,517.5
2023-05-06T09:06:31.219Z,517.7
2023-05-06T09:07:33.169Z,517.7
2023-05-06T09:08:35.101Z,517.8
2023-05-06T09:09:36.931Z,518.2
2023-05-06T09:10:38.923Z,517.9
2023-05-06T09:11:40.764Z,518
2023-05-06T09:12:42.718Z,518.3
2023-05-06T09:13:44.566Z,518.7
2023-05-06T09:14:46.450Z,518.3
2023-05-06T09:15:51.032Z,519
2023-05-06T09:16:53.649Z,518.2
2023-05-06T09:17:55.909Z,518.6
2023-05-06T09:18:57.823Z,518.7
2023-05-06T09:19:59.485Z,518.5
2023-05-06T09:21:01.712Z,518.8
2023-05-06T09:22:03.467Z,519
2023-05-06T09:23:05.417Z,519.2
2023-05-06T09:24:07.374Z,519
2023-05-06T09:25:09.839Z,519
2023-05-06T09:26:11.985Z,519.2
2023-05-06T09:27:15.782Z,519.3
2023-05-06T09:28:17.557Z,519.6
2023-05-06T09:29:19.273Z,519.5
2023-05-06T09:30:21.128Z,519.5
2023-05-06T09:31:23.333Z,519.7
2023-05-06T09:32:25.271Z,520.1
2023-05-06T09:33:27.292Z,519.9
2023-05-06T09:34:29.244Z,520
2023-05-06T09:35:31.101Z,519.7
2023-05-06T09:36:33.056Z,519.7
2023-05-06T09:37:34.906Z,519.9
2023-05-06T09:38:36.954Z,520.3
2023-05-06T09:39:38.911Z,520.3
2023-05-06T09:40:40.782Z,520.5
2023-05-06T09:41:42.724Z,520.6
2023-05-06T09:42:44.562Z,520.8
2023-05-06T09:43:46.521Z,520.8
2023-05-06T09:44:48.273Z,520.8
2023-05-06T09:45:50.380Z,520.5
2023-05-06T09:46:52.276Z,520.7
2023-05-06T09:47:54.397Z,520.8
2023-05-06T09:48:56.288Z,520.9
2023-05-06T09:49:58.122Z,520.9
2023-05-06T09:51:01.704Z,520.8
2023-05-06T09:52:03.568Z,521
2023-05-06T09:53:05.339Z,520.7
2023-05-06T09:54:07.280Z,521.2
2023-05-06T09:55:10.575Z,520.9
2023-05-06T09:56:12.503Z,521.1
2023-05-06T09:57:14.561Z,520.8
2023-05-06T09:58:16.507Z,520.8
2023-05-06T09:59:20.853Z,520.7
2023-05-06T10:00:22.666Z,520.9
2023-05-06T10:01:38.279Z,520.9
2023-05-06T10:02:40.935Z,521
2023-05-06T10:03:43.623Z,520.8
2023-05-06T10:04:46.522Z,520.8
2023-05-06T10:05:48.507Z,520.8
2023-05-06T10:06:50.260Z,520.9
2023-05-06T10:07:52.141Z,521.8
2023-05-06T10:08:54.050Z,521.1
2023-05-06T10:09:55.815Z,521.3
2023-05-06T10:10:57.752Z,521.5
2023-05-06T10:11:59.503Z,521.5
2023-05-06T10:13:01.694Z,522
2023-05-06T10:14:03.622Z,521.9
2023-05-06T10:15:05.387Z,521.5
2023-05-06T10:16:07.332Z,521.5
2023-05-06T10:17:09.168Z,522.1
2023-05-06T10:18:11.363Z,521.4
2023-05-06T10:19:13.256Z,521.7
2023-05-06T10:20:15.131Z,522.2
2023-05-06T10:21:16.988Z,522.4
2023-05-06T10:22:18.808Z,522.4
2023-05-06T10:23:20.777Z,522.5
2023-05-06T10:24:22.843Z,522.3
2023-05-06T10:25:24.697Z,522.5
2023-05-06T10:26:26.528Z,522.2
2023-05-06T10:27:28.488Z,522.3
2023-05-06T10:28:32.261Z,522.2
2023-05-06T10:29:34.137Z,522
2023-05-06T10:30:35.909Z,522.3
2023-05-06T10:31:37.985Z,522.2
2023-05-06T10:32:39.931Z,521.9
2023-05-06T10:33:42.997Z,522.4
2023-05-06T10:34:44.807Z,522.2
2023-05-06T10:35:46.671Z,522.2
2023-05-06T10:36:48.513Z,522.2
2023-05-06T10:37:50.305Z,522.2
2023-05-06T10:38:52.005Z,522.3
2023-05-06T10:39:53.865Z,522.4
2023-05-06T10:40:55.913Z,522.6
2023-05-06T10:41:57.793Z,522.5
2023-05-06T10:42:59.642Z,522.3
2023-05-06T10:44:01.577Z,522.3
2023-05-06T10:45:03.528Z,522.3
2023-05-06T10:46:05.910Z,522.1
2023-05-06T10:47:07.845Z,522
2023-05-06T10:48:09.687Z,522
2023-05-06T10:49:12.129Z,522.7
2023-05-06T10:50:14.002Z,522.8
2023-05-06T10:51:15.840Z,522.9
2023-05-06T10:52:17.794Z,522.7
2023-05-06T10:53:19.563Z,523.1
2023-05-06T10:54:21.492Z,522.9
2023-05-06T10:55:23.113Z,522.7
2023-05-06T10:56:25.059Z,523.1
2023-05-06T10:57:27.592Z,522.8
2023-05-06T10:58:29.505Z,523.2
2023-05-06T10:59:31.382Z,522.7
2023-05-06T11:00:33.307Z,522.7
2023-05-06T11:01:35.588Z,522.6
2023-05-06T11:02:37.696Z,522.5
2023-05-06T11:03:39.732Z,522.6
2023-05-06T11:04:41.646Z,523
2023-05-06T11:05:43.488Z,522.4
2023-05-06T11:06:45.441Z,522.9
2023-05-06T11:07:47.290Z,523.2
2023-05-06T11:08:49.172Z,523.2
2023-05-06T11:09:50.982Z,522.8
2023-05-06T11:10:52.740Z,523
2023-05-06T11:11:54.698Z,522.5
2023-05-06T11:12:56.713Z,523
2023-05-06T11:13:58.567Z,523.2
2023-05-06T11:15:00.655Z,523.1
2023-05-06T11:16:02.537Z,522.7
2023-05-06T11:17:04.690Z,523.1
2023-05-06T11:18:06.881Z,523.4
2023-05-06T11:19:08.657Z,523.1
2023-05-06T11:20:11.798Z,523.4
2023-05-06T11:21:13.799Z,523.4
2023-05-06T11:22:15.644Z,522.8
2023-05-06T11:23:17.502Z,523.3
2023-05-06T11:24:19.349Z,522.9
2023-05-06T11:25:21.127Z,523.2
2023-05-06T11:26:23.052Z,523.2
2023-05-06T11:27:25.107Z,523.1
2023-05-06T11:28:26.973Z,523.5
2023-05-06T11:29:28.705Z,523.6
2023-05-06T11:30:30.562Z,523.9
2023-05-06T11:31:33.094Z,523.7
2023-05-06T11:32:35.084Z,523.8
2023-05-06T11:33:36.794Z,523.6
2023-05-06T11:34:38.767Z,524.3
2023-05-06T11:35:40.620Z,523.6
2023-05-06T11:36:42.566Z,524
2023-05-06T11:37:44.515Z,523.7
2023-05-06T11:38:46.384Z,523.9
2023-05-06T11:39:48.227Z,523.6
2023-05-06T11:40:50.090Z,524.2
2023-05-06T11:41:52.033Z,524.4
2023-05-06T11:42:53.978Z,524
2023-05-06T11:43:55.961Z,524.1
2023-05-06T11:44:57.776Z,523.7
2023-05-06T11:45:59.741Z,523.8
2023-05-06T11:47:01.791Z,523.6
2023-05-06T11:48:03.657Z,523.4
2023-05-06T11:49:05.500Z,523.5
2023-05-06T11:50:07.358Z,523.5
2023-05-06T11:51:09.187Z,523.8
2023-05-06T11:52:11.248Z,523.8
2023-05-06T11:53:12.968Z,524
2023-05-06T11:54:14.952Z,523.6
2023-05-06T11:55:16.691Z,523.2
2023-05-06T11:56:18.511Z,523.7
2023-05-06T11:57:20.729Z,523.8
2023-05-06T11:58:22.554Z,523.9
2023-05-06T11:59:24.488Z,524
2023-05-06T12:00:26.355Z,524.2
2023-05-06T12:01:28.284Z,524.4
2023-05-06T12:02:30.597Z,524.6
2023-05-06T12:03:33.958Z,524.6
2023-05-06T12:04:36.169Z,524.1
2023-05-06T12:05:38.064Z,524.5
2023-05-06T12:06:39.918Z,524.2
2023-05-06T12:07:41.755Z,524.2
2023-05-06T12:08:46.593Z,524.9
2023-05-06T12:09:48.438Z,524.6
2023-05-06T12:10:50.169Z,524.4
2023-05-06T12:11:52.129Z,524.7
2023-05-06T12:12:54.026Z,524.6
2023-05-06T12:13:56.033Z,524.7
2023-05-06T12:14:57.996Z,524.7
2023-05-06T12:16:00.415Z,524.9
2023-05-06T12:17:02.300Z,525.1
2023-05-06T12:18:04.485Z,525
2023-05-06T12:19:06.298Z,525.4
2023-05-06T12:20:08.561Z,525.1
2023-05-06T12:21:10.467Z,525.3
2023-05-06T12:22:12.369Z,525.1
2023-05-06T12:23:14.220Z,525.5
2023-05-06T12:24:16.461Z,525.7
2023-05-06T12:25:18.339Z,525.6
2023-05-06T12:26:20.290Z,525.4
2023-05-06T12:27:22.126Z,525.5
2023-05-06T12:28:26.651Z,525.5
2023-05-06T12:29:28.594Z,525.5
2023-05-06T12:30:30.551Z,525.4
2023-05-06T12:31:32.400Z,525.4
2023-05-06T12:32:34.692Z,526.1
2023-05-06T12:33:36.622Z,526.3
2023-05-06T12:34:38.495Z,525.9
2023-05-06T12:35:42.915Z,526.1
2023-05-06T12:36:44.754Z,526.2
2023-05-06T12:37:46.505Z,526.1
2023-05-06T12:38:48.349Z,526.2
2023-05-06T12:39:50.177Z,526.3
2023-05-06T12:40:52.034Z,526.5
2023-05-06T12:41:53.982Z,527
2023-05-06T12:42:55.923Z,526.6
2023-05-06T12:43:57.678Z,526.8
2023-05-06T12:44:59.522Z,527.1
2023-05-06T12:46:01.698Z,527
2023-05-06T12:47:03.634Z,527
2023-05-06T12:48:05.749Z,527.1
2023-05-06T12:49:10.418Z,527
2023-05-06T12:50:13.724Z,527.2
2023-05-06T12:51:15.644Z,526.8
2023-05-06T12:52:17.505Z,526.8
2023-05-06T12:53:19.346Z,526.8
2023-05-06T12:54:21.191Z,526.9
2023-05-06T12:55:23.150Z,526.7
2023-05-06T12:56:25.004Z,526.8
2023-05-06T12:57:26.838Z,526.9
2023-05-06T12:58:28.597Z,526.5
2023-05-06T12:59:30.542Z,526.2
2023-05-06T13:00:32.393Z,526.2
2023-05-06T13:01:34.464Z,526.3
2023-05-06T13:02:36.688Z,526.4
2023-05-06T13:03:39.400Z,526.4
2023-05-06T13:04:41.438Z,526.5
2023-05-06T13:05:43.387Z,526.4
2023-05-06T13:06:45.138Z,526.7
2023-05-06T13:07:46.974Z,526.6
2023-05-06T13:08:48.838Z,526.3
2023-05-06T13:09:50.681Z,526.4
2023-05-06T13:10:52.540Z,526.6
2023-05-06T13:11:54.387Z,526.3
2023-05-06T13:12:56.353Z,526.3
2023-05-06T13:13:58.285Z,526.3
2023-05-06T13:15:00.138Z,526.6
2023-05-06T13:16:01.991Z,526.4
2023-05-06T13:17:04.111Z,526.4
2023-05-06T13:18:06.233Z,526.4
2023-05-06T13:19:33.733Z,526.5
2023-05-06T13:20:35.698Z,526.5
2023-05-06T13:21:37.554Z,526.8
2023-05-06T13:22:55.798Z,526.4
2023-05-06T13:23:57.650Z,526.7
2023-05-06T13:24:59.513Z,526.7
2023-05-06T13:26:06.662Z,526.7